Terminal Aerodrome Forecast
Issued by NWS Charleston, WV

Current Version | Previous Version | Graphics & Text | Print | Product List | Glossary On
Versions: 1 2 3 4 5 6 7 8 9 10 11 12 13 14 15 16 17 18 19 20 21 22 23
000
FTUS41 KRLX 160500 RRA
TAFEKN
TAF
KEKN 160542Z 1606/1706 32011G21KT 6SM -SHSN BKN030
     FM160800 32009KT P6SM BKN035
     FM161300 35006KT P6SM FEW045=

USA.gov is the U.S. government's official web portal to all federal, state and local government web resources and services.